sensor_id;sensor_type;location;lat;lon;timestamp;P1;durP1;ratioP1;P2;durP2;ratioP2
48845;SDS011;34665;51.886;5.436;2022-08-01T00:00:31;13.15;;;7.72;;
48845;SDS011;34665;51.886;5.436;2022-08-01T00:02:56;16.83;;;8.45;;
48845;SDS011;34665;51.886;5.436;2022-08-01T00:05:22;12.55;;;6.70;;
48845;SDS011;34665;51.886;5.436;2022-08-01T00:07:47;15.60;;;8.32;;
48845;SDS011;34665;51.886;5.436;2022-08-01T00:10:14;16.85;;;8.50;;
48845;SDS011;34665;51.886;5.436;2022-08-01T00:12:40;17.20;;;8.13;;
48845;SDS011;34665;51.886;5.436;2022-08-01T00:15:08;13.53;;;7.60;;
48845;SDS011;34665;51.886;5.436;2022-08-01T00:17:35;9.80;;;4.47;;
48845;SDS011;34665;51.886;5.436;2022-08-01T00:20:01;14.00;;;6.85;;
48845;SDS011;34665;51.886;5.436;2022-08-01T00:22:33;14.63;;;7.37;;
48845;SDS011;34665;51.886;5.436;2022-08-01T00:24:59;12.80;;;6.37;;
48845;SDS011;34665;51.886;5.436;2022-08-01T00:27:25;13.87;;;7.33;;
48845;SDS011;34665;51.886;5.436;2022-08-01T00:29:51;14.40;;;7.60;;
48845;SDS011;34665;51.886;5.436;2022-08-01T00:32:17;11.65;;;6.70;;
48845;SDS011;34665;51.886;5.436;2022-08-01T00:37:09;16.83;;;8.20;;
48845;SDS011;34665;51.886;5.436;2022-08-01T00:39:34;19.15;;;8.18;;
48845;SDS011;34665;51.886;5.436;2022-08-01T00:42:00;16.17;;;6.97;;
48845;SDS011;34665;51.886;5.436;2022-08-01T00:44:32;13.80;;;7.93;;
48845;SDS011;34665;51.886;5.436;2022-08-01T00:46:57;17.85;;;8.60;;
48845;SDS011;34665;51.886;5.436;2022-08-01T00:49:23;17.13;;;7.50;;
48845;SDS011;34665;51.886;5.436;2022-08-01T00:51:49;18.92;;;8.85;;
48845;SDS011;34665;51.886;5.436;2022-08-01T00:54:15;17.58;;;8.02;;
48845;SDS011;34665;51.886;5.436;2022-08-01T00:56:40;12.95;;;6.93;;
48845;SDS011;34665;51.886;5.436;2022-08-01T00:59:06;14.77;;;7.22;;
48845;SDS011;34665;51.886;5.436;2022-08-01T01:03:58;16.00;;;7.77;;
48845;SDS011;34665;51.886;5.436;2022-08-01T01:11:32;16.20;;;8.20;;
48845;SDS011;34665;51.886;5.436;2022-08-01T01:14:10;14.53;;;7.43;;
48845;SDS011;34665;51.886;5.436;2022-08-01T01:16:41;13.33;;;7.07;;
48845;SDS011;34665;51.886;5.436;2022-08-01T01:19:10;15.40;;;7.93;;
48845;SDS011;34665;51.886;5.436;2022-08-01T01:21:47;15.53;;;7.33;;
48845;SDS011;34665;51.886;5.436;2022-08-01T01:27:34;20.33;;;8.87;;
48845;SDS011;34665;51.886;5.436;2022-08-01T01:30:08;16.43;;;8.57;;
48845;SDS011;34665;51.886;5.436;2022-08-01T01:35:05;16.67;;;8.60;;
48845;SDS011;34665;51.886;5.436;2022-08-01T01:37:34;16.17;;;8.87;;
48845;SDS011;34665;51.886;5.436;2022-08-01T01:40:03;19.30;;;9.47;;
48845;SDS011;34665;51.886;5.436;2022-08-01T01:42:30;15.90;;;9.03;;
48845;SDS011;34665;51.886;5.436;2022-08-01T01:44:58;17.57;;;8.53;;
48845;SDS011;34665;51.886;5.436;2022-08-01T01:47:25;13.53;;;7.60;;
48845;SDS011;34665;51.886;5.436;2022-08-01T01:49:52;20.30;;;8.97;;
48845;SDS011;34665;51.886;5.436;2022-08-01T01:52:21;20.43;;;8.63;;
48845;SDS011;34665;51.886;5.436;2022-08-01T01:54:49;14.97;;;8.87;;
48845;SDS011;34665;51.886;5.436;2022-08-01T01:57:16;13.40;;;7.53;;
48845;SDS011;34665;51.886;5.436;2022-08-01T01:59:43;14.30;;;7.63;;
48845;SDS011;34665;51.886;5.436;2022-08-01T02:02:10;14.33;;;7.53;;
48845;SDS011;34665;51.886;5.436;2022-08-01T02:04:38;16.40;;;8.73;;
48845;SDS011;34665;51.886;5.436;2022-08-01T02:07:07;16.37;;;8.53;;
48845;SDS011;34665;51.886;5.436;2022-08-01T02:09:35;15.33;;;8.83;;
48845;SDS011;34665;51.886;5.436;2022-08-01T02:12:02;16.10;;;9.00;;
48845;SDS011;34665;51.886;5.436;2022-08-01T02:14:31;15.87;;;8.60;;
48845;SDS011;34665;51.886;5.436;2022-08-01T02:16:59;23.37;;;9.80;;
48845;SDS011;34665;51.886;5.436;2022-08-01T02:19:29;15.43;;;7.77;;
48845;SDS011;34665;51.886;5.436;2022-08-01T02:24:35;18.20;;;9.40;;
48845;SDS011;34665;51.886;5.436;2022-08-01T02:27:07;23.73;;;10.83;;
48845;SDS011;34665;51.886;5.436;2022-08-01T02:29:37;15.70;;;8.10;;
48845;SDS011;34665;51.886;5.436;2022-08-01T02:32:07;23.73;;;9.73;;
48845;SDS011;34665;51.886;5.436;2022-08-01T02:34:39;20.30;;;10.03;;
48845;SDS011;34665;51.886;5.436;2022-08-01T02:37:06;18.13;;;8.83;;
48845;SDS011;34665;51.886;5.436;2022-08-01T02:39:35;22.17;;;9.37;;
48845;SDS011;34665;51.886;5.436;2022-08-01T02:42:02;22.53;;;10.33;;
48845;SDS011;34665;51.886;5.436;2022-08-01T02:44:33;17.37;;;8.57;;
48845;SDS011;34665;51.886;5.436;2022-08-01T02:47:02;20.57;;;9.00;;
48845;SDS011;34665;51.886;5.436;2022-08-01T02:49:35;15.02;;;8.80;;
48845;SDS011;34665;51.886;5.436;2022-08-01T02:52:05;21.20;;;9.67;;
48845;SDS011;34665;51.886;5.436;2022-08-01T02:54:33;21.40;;;11.10;;
48845;SDS011;34665;51.886;5.436;2022-08-01T02:57:01;20.53;;;10.47;;
48845;SDS011;34665;51.886;5.436;2022-08-01T02:59:29;23.63;;;10.13;;
48845;SDS011;34665;51.886;5.436;2022-08-01T03:01:57;24.60;;;10.53;;
48845;SDS011;34665;51.886;5.436;2022-08-01T03:04:24;24.77;;;10.80;;
48845;SDS011;34665;51.886;5.436;2022-08-01T03:06:52;24.43;;;10.20;;
48845;SDS011;34665;51.886;5.436;2022-08-01T03:09:19;16.60;;;9.23;;
48845;SDS011;34665;51.886;5.436;2022-08-01T03:11:46;20.37;;;10.07;;
48845;SDS011;34665;51.886;5.436;2022-08-01T03:14:14;21.07;;;10.03;;
48845;SDS011;34665;51.886;5.436;2022-08-01T03:16:41;23.90;;;10.97;;
48845;SDS011;34665;51.886;5.436;2022-08-01T03:19:09;20.53;;;10.67;;
48845;SDS011;34665;51.886;5.436;2022-08-01T03:21:36;19.77;;;9.97;;
48845;SDS011;34665;51.886;5.436;2022-08-01T03:24:03;23.13;;;10.17;;
48845;SDS011;34665;51.886;5.436;2022-08-01T03:26:31;23.43;;;11.03;;
48845;SDS011;34665;51.886;5.436;2022-08-01T03:28:59;27.33;;;10.80;;
48845;SDS011;34665;51.886;5.436;2022-08-01T03:31:31;27.63;;;11.60;;
48845;SDS011;34665;51.886;5.436;2022-08-01T03:34:00;22.43;;;10.53;;
48845;SDS011;34665;51.886;5.436;2022-08-01T03:36:26;24.23;;;10.18;;
48845;SDS011;34665;51.886;5.436;2022-08-01T03:38:55;22.27;;;10.40;;
48845;SDS011;34665;51.886;5.436;2022-08-01T03:41:22;25.53;;;9.97;;
48845;SDS011;34665;51.886;5.436;2022-08-01T03:44:00;36.73;;;17.07;;
48845;SDS011;34665;51.886;5.436;2022-08-01T03:46:29;21.27;;;11.23;;
48845;SDS011;34665;51.886;5.436;2022-08-01T03:49:03;25.67;;;11.87;;
48845;SDS011;34665;51.886;5.436;2022-08-01T03:51:34;23.40;;;11.63;;
48845;SDS011;34665;51.886;5.436;2022-08-01T03:54:02;42.53;;;17.47;;
48845;SDS011;34665;51.886;5.436;2022-08-01T03:56:29;23.33;;;11.77;;
48845;SDS011;34665;51.886;5.436;2022-08-01T03:58:58;50.10;;;21.67;;
48845;SDS011;34665;51.886;5.436;2022-08-01T04:01:25;29.70;;;13.40;;
48845;SDS011;34665;51.886;5.436;2022-08-01T04:03:53;93.90;;;46.37;;
48845;SDS011;34665;51.886;5.436;2022-08-01T04:06:19;25.90;;;11.77;;
48845;SDS011;34665;51.886;5.436;2022-08-01T04:11:20;53.50;;;26.67;;
48845;SDS011;34665;51.886;5.436;2022-08-01T04:13:51;46.73;;;20.10;;
48845;SDS011;34665;51.886;5.436;2022-08-01T04:16:19;50.13;;;25.03;;
48845;SDS011;34665;51.886;5.436;2022-08-01T04:21:10;53.87;;;24.80;;
48845;SDS011;34665;51.886;5.436;2022-08-01T04:23:36;38.07;;;18.30;;
48845;SDS011;34665;51.886;5.436;2022-08-01T04:26:04;21.87;;;11.37;;
48845;SDS011;34665;51.886;5.436;2022-08-01T04:30:59;23.90;;;10.70;;
48845;SDS011;34665;51.886;5.436;2022-08-01T04:33:25;34.63;;;16.08;;
48845;SDS011;34665;51.886;5.436;2022-08-01T04:35:53;25.23;;;13.13;;
48845;SDS011;34665;51.886;5.436;2022-08-01T04:38:21;23.93;;;12.63;;
48845;SDS011;34665;51.886;5.436;2022-08-01T04:40:52;22.13;;;11.73;;
48845;SDS011;34665;51.886;5.436;2022-08-01T04:43:19;25.73;;;13.53;;
48845;SDS011;34665;51.886;5.436;2022-08-01T04:45:46;23.60;;;12.05;;
48845;SDS011;34665;51.886;5.436;2022-08-01T04:48:12;24.27;;;11.03;;
48845;SDS011;34665;51.886;5.436;2022-08-01T04:50:40;27.60;;;13.13;;
48845;SDS011;34665;51.886;5.436;2022-08-01T04:53:16;63.47;;;18.90;;
48845;SDS011;34665;51.886;5.436;2022-08-01T04:55:47;28.00;;;12.73;;
48845;SDS011;34665;51.886;5.436;2022-08-01T04:58:13;17.77;;;9.50;;
48845;SDS011;34665;51.886;5.436;2022-08-01T05:00:41;22.93;;;11.40;;
48845;SDS011;34665;51.886;5.436;2022-08-01T05:03:07;16.90;;;8.73;;
48845;SDS011;34665;51.886;5.436;2022-08-01T05:05:32;15.52;;;8.32;;
48845;SDS011;34665;51.886;5.436;2022-08-01T05:10:25;30.07;;;10.87;;
48845;SDS011;34665;51.886;5.436;2022-08-01T05:12:51;17.65;;;9.30;;
48845;SDS011;34665;51.886;5.436;2022-08-01T05:15:17;18.42;;;7.88;;
48845;SDS011;34665;51.886;5.436;2022-08-01T05:17:42;14.10;;;7.70;;
48845;SDS011;34665;51.886;5.436;2022-08-01T05:20:08;11.85;;;6.68;;
48845;SDS011;34665;51.886;5.436;2022-08-01T05:22:34;14.80;;;8.07;;
48845;SDS011;34665;51.886;5.436;2022-08-01T05:24:59;22.00;;;9.88;;
48845;SDS011;34665;51.886;5.436;2022-08-01T05:27:25;21.23;;;10.05;;
48845;SDS011;34665;51.886;5.436;2022-08-01T05:29:51;18.33;;;7.93;;
48845;SDS011;34665;51.886;5.436;2022-08-01T05:32:17;12.20;;;7.95;;
48845;SDS011;34665;51.886;5.436;2022-08-01T05:34:42;13.75;;;8.60;;
48845;SDS011;34665;51.886;5.436;2022-08-01T05:37:08;12.10;;;7.13;;
48845;SDS011;34665;51.886;5.436;2022-08-01T05:39:33;11.55;;;7.25;;
48845;SDS011;34665;51.886;5.436;2022-08-01T05:41:58;11.88;;;6.70;;
48845;SDS011;34665;51.886;5.436;2022-08-01T05:44:24;8.15;;;5.30;;
48845;SDS011;34665;51.886;5.436;2022-08-01T05:46:50;12.33;;;7.40;;
48845;SDS011;34665;51.886;5.436;2022-08-01T05:51:42;9.97;;;5.90;;
48845;SDS011;34665;51.886;5.436;2022-08-01T05:54:08;11.82;;;6.07;;
48845;SDS011;34665;51.886;5.436;2022-08-01T05:56:33;13.70;;;7.20;;
48845;SDS011;34665;51.886;5.436;2022-08-01T05:58:59;14.40;;;6.78;;
48845;SDS011;34665;51.886;5.436;2022-08-01T06:01:24;8.13;;;5.47;;
48845;SDS011;34665;51.886;5.436;2022-08-01T06:03:50;12.93;;;6.95;;
48845;SDS011;34665;51.886;5.436;2022-08-01T06:06:15;7.95;;;4.80;;
48845;SDS011;34665;51.886;5.436;2022-08-01T06:08:41;10.70;;;4.70;;
48845;SDS011;34665;51.886;5.436;2022-08-01T06:13:32;13.40;;;5.80;;
48845;SDS011;34665;51.886;5.436;2022-08-01T06:15:58;10.55;;;5.28;;
48845;SDS011;34665;51.886;5.436;2022-08-01T06:18:23;5.22;;;3.55;;
48845;SDS011;34665;51.886;5.436;2022-08-01T06:20:49;7.65;;;3.38;;
48845;SDS011;34665;51.886;5.436;2022-08-01T06:23:15;9.10;;;4.50;;
48845;SDS011;34665;51.886;5.436;2022-08-01T06:25:44;9.33;;;5.00;;
48845;SDS011;34665;51.886;5.436;2022-08-01T06:28:09;6.73;;;4.20;;
48845;SDS011;34665;51.886;5.436;2022-08-01T06:30:35;7.55;;;4.75;;
48845;SDS011;34665;51.886;5.436;2022-08-01T06:33:00;10.18;;;5.50;;
48845;SDS011;34665;51.886;5.436;2022-08-01T06:35:27;10.48;;;4.72;;
48845;SDS011;34665;51.886;5.436;2022-08-01T06:37:55;8.43;;;4.30;;
48845;SDS011;34665;51.886;5.436;2022-08-01T06:40:21;4.77;;;3.20;;
48845;SDS011;34665;51.886;5.436;2022-08-01T06:42:47;6.00;;;3.08;;
48845;SDS011;34665;51.886;5.436;2022-08-01T06:45:13;6.07;;;2.85;;
48845;SDS011;34665;51.886;5.436;2022-08-01T06:47:40;8.87;;;3.10;;
48845;SDS011;34665;51.886;5.436;2022-08-01T06:50:06;6.47;;;2.63;;
48845;SDS011;34665;51.886;5.436;2022-08-01T06:52:33;4.60;;;1.90;;
48845;SDS011;34665;51.886;5.436;2022-08-01T06:54:59;3.90;;;2.20;;
48845;SDS011;34665;51.886;5.436;2022-08-01T06:57:25;5.15;;;1.92;;
48845;SDS011;34665;51.886;5.436;2022-08-01T06:59:51;2.53;;;1.60;;
48845;SDS011;34665;51.886;5.436;2022-08-01T07:02:17;1.57;;;1.27;;
48845;SDS011;34665;51.886;5.436;2022-08-01T07:04:43;2.78;;;1.77;;
48845;SDS011;34665;51.886;5.436;2022-08-01T07:07:08;3.20;;;1.85;;
48845;SDS011;34665;51.886;5.436;2022-08-01T07:09:34;3.20;;;1.73;;
48845;SDS011;34665;51.886;5.436;2022-08-01T07:11:59;4.13;;;1.52;;
48845;SDS011;34665;51.886;5.436;2022-08-01T07:14:25;2.85;;;1.40;;
48845;SDS011;34665;51.886;5.436;2022-08-01T07:19:16;7.90;;;2.10;;
48845;SDS011;34665;51.886;5.436;2022-08-01T07:24:08;2.50;;;1.37;;
48845;SDS011;34665;51.886;5.436;2022-08-01T07:26:34;3.27;;;1.67;;
48845;SDS011;34665;51.886;5.436;2022-08-01T07:31:25;2.83;;;1.30;;
48845;SDS011;34665;51.886;5.436;2022-08-01T07:36:16;1.90;;;1.10;;
48845;SDS011;34665;51.886;5.436;2022-08-01T07:38:44;2.73;;;1.40;;
48845;SDS011;34665;51.886;5.436;2022-08-01T07:41:10;4.20;;;1.40;;
48845;SDS011;34665;51.886;5.436;2022-08-01T07:43:36;4.63;;;2.00;;
48845;SDS011;34665;51.886;5.436;2022-08-01T07:48:27;2.87;;;1.60;;
48845;SDS011;34665;51.886;5.436;2022-08-01T07:50:53;3.40;;;1.85;;
48845;SDS011;34665;51.886;5.436;2022-08-01T07:53:19;6.82;;;2.88;;
48845;SDS011;34665;51.886;5.436;2022-08-01T07:55:45;4.57;;;1.95;;
48845;SDS011;34665;51.886;5.436;2022-08-01T07:58:10;3.28;;;1.77;;
48845;SDS011;34665;51.886;5.436;2022-08-01T08:00:35;6.57;;;2.08;;
48845;SDS011;34665;51.886;5.436;2022-08-01T08:03:01;7.03;;;1.63;;
48845;SDS011;34665;51.886;5.436;2022-08-01T08:05:26;4.35;;;1.80;;
48845;SDS011;34665;51.886;5.436;2022-08-01T08:07:52;13.17;;;2.10;;
48845;SDS011;34665;51.886;5.436;2022-08-01T08:10:18;4.75;;;1.95;;
48845;SDS011;34665;51.886;5.436;2022-08-01T08:12:44;3.30;;;1.90;;
48845;SDS011;34665;51.886;5.436;2022-08-01T08:15:12;3.57;;;1.70;;
48845;SDS011;34665;51.886;5.436;2022-08-01T08:17:38;5.43;;;1.60;;
48845;SDS011;34665;51.886;5.436;2022-08-01T08:20:05;3.93;;;2.20;;
48845;SDS011;34665;51.886;5.436;2022-08-01T08:22:32;4.83;;;1.60;;
48845;SDS011;34665;51.886;5.436;2022-08-01T08:24:58;35.05;;;20.35;;
48845;SDS011;34665;51.886;5.436;2022-08-01T08:27:24;11.27;;;5.25;;
48845;SDS011;34665;51.886;5.436;2022-08-01T08:32:14;3.93;;;2.00;;
48845;SDS011;34665;51.886;5.436;2022-08-01T08:37:06;2.63;;;1.63;;
48845;SDS011;34665;51.886;5.436;2022-08-01T08:39:32;4.60;;;1.67;;
48845;SDS011;34665;51.886;5.436;2022-08-01T08:42:04;5.97;;;1.97;;
48845;SDS011;34665;51.886;5.436;2022-08-01T08:44:31;3.97;;;2.40;;
48845;SDS011;34665;51.886;5.436;2022-08-01T08:49:27;4.20;;;1.90;;
48845;SDS011;34665;51.886;5.436;2022-08-01T08:51:57;2.53;;;1.80;;
48845;SDS011;34665;51.886;5.436;2022-08-01T08:54:24;3.90;;;2.70;;
48845;SDS011;34665;51.886;5.436;2022-08-01T08:56:51;6.70;;;1.93;;
48845;SDS011;34665;51.886;5.436;2022-08-01T08:59:18;4.37;;;2.33;;
48845;SDS011;34665;51.886;5.436;2022-08-01T09:01:45;4.60;;;2.10;;
48845;SDS011;34665;51.886;5.436;2022-08-01T09:04:11;6.30;;;2.03;;
48845;SDS011;34665;51.886;5.436;2022-08-01T09:09:02;7.57;;;2.20;;
48845;SDS011;34665;51.886;5.436;2022-08-01T09:11:29;2.77;;;1.87;;
48845;SDS011;34665;51.886;5.436;2022-08-01T09:14:01;5.70;;;2.07;;
48845;SDS011;34665;51.886;5.436;2022-08-01T09:16:29;2.63;;;1.20;;
48845;SDS011;34665;51.886;5.436;2022-08-01T09:19:05;4.30;;;1.10;;
48845;SDS011;34665;51.886;5.436;2022-08-01T09:22:00;3.40;;;1.65;;
48845;SDS011;34665;51.886;5.436;2022-08-01T09:24:27;6.67;;;2.00;;
48845;SDS011;34665;51.886;5.436;2022-08-01T09:26:54;5.73;;;2.00;;
48845;SDS011;34665;51.886;5.436;2022-08-01T09:29:21;6.77;;;2.60;;
48845;SDS011;34665;51.886;5.436;2022-08-01T09:31:49;5.77;;;2.70;;
48845;SDS011;34665;51.886;5.436;2022-08-01T09:34:16;5.03;;;2.80;;
48845;SDS011;34665;51.886;5.436;2022-08-01T09:36:49;7.80;;;2.93;;
48845;SDS011;34665;51.886;5.436;2022-08-01T09:39:28;5.33;;;2.93;;
48845;SDS011;34665;51.886;5.436;2022-08-01T09:41:57;7.40;;;2.90;;
48845;SDS011;34665;51.886;5.436;2022-08-01T09:44:37;8.30;;;3.80;;
48845;SDS011;34665;51.886;5.436;2022-08-01T09:47:04;9.07;;;3.90;;
48845;SDS011;34665;51.886;5.436;2022-08-01T09:49:31;11.93;;;4.07;;
48845;SDS011;34665;51.886;5.436;2022-08-01T09:52:00;11.93;;;3.87;;
48845;SDS011;34665;51.886;5.436;2022-08-01T09:54:36;5.47;;;3.40;;
48845;SDS011;34665;51.886;5.436;2022-08-01T09:57:12;12.97;;;4.20;;
48845;SDS011;34665;51.886;5.436;2022-08-01T09:59:41;6.90;;;3.47;;
48845;SDS011;34665;51.886;5.436;2022-08-01T10:02:09;6.43;;;2.80;;
48845;SDS011;34665;51.886;5.436;2022-08-01T10:04:45;11.57;;;4.30;;
48845;SDS011;34665;51.886;5.436;2022-08-01T10:07:13;4.87;;;3.63;;
48845;SDS011;34665;51.886;5.436;2022-08-01T10:09:41;5.70;;;2.93;;
48845;SDS011;34665;51.886;5.436;2022-08-01T10:12:08;10.77;;;5.13;;
48845;SDS011;34665;51.886;5.436;2022-08-01T10:14:34;13.30;;;5.93;;
48845;SDS011;34665;51.886;5.436;2022-08-01T10:17:01;9.20;;;3.77;;
48845;SDS011;34665;51.886;5.436;2022-08-01T10:21:54;13.55;;;4.60;;
48845;SDS011;34665;51.886;5.436;2022-08-01T10:24:21;8.70;;;3.90;;
48845;SDS011;34665;51.886;5.436;2022-08-01T10:26:47;10.87;;;4.00;;
48845;SDS011;34665;51.886;5.436;2022-08-01T10:29:17;11.53;;;4.13;;
48845;SDS011;34665;51.886;5.436;2022-08-01T10:31:45;10.63;;;3.83;;
48845;SDS011;34665;51.886;5.436;2022-08-01T10:34:15;15.37;;;5.27;;
48845;SDS011;34665;51.886;5.436;2022-08-01T10:36:42;12.53;;;3.93;;
48845;SDS011;34665;51.886;5.436;2022-08-01T10:39:12;15.03;;;4.10;;
48845;SDS011;34665;51.886;5.436;2022-08-01T10:41:39;11.67;;;3.70;;
48845;SDS011;34665;51.886;5.436;2022-08-01T10:44:08;15.77;;;3.97;;
48845;SDS011;34665;51.886;5.436;2022-08-01T10:46:34;14.97;;;4.23;;
48845;SDS011;34665;51.886;5.436;2022-08-01T10:49:13;16.53;;;4.03;;
48845;SDS011;34665;51.886;5.436;2022-08-01T10:51:42;10.03;;;2.80;;
48845;SDS011;34665;51.886;5.436;2022-08-01T10:54:10;10.33;;;3.20;;
48845;SDS011;34665;51.886;5.436;2022-08-01T10:56:43;11.77;;;3.17;;
48845;SDS011;34665;51.886;5.436;2022-08-01T10:59:14;9.13;;;2.90;;
48845;SDS011;34665;51.886;5.436;2022-08-01T11:01:54;8.63;;;2.50;;
48845;SDS011;34665;51.886;5.436;2022-08-01T11:04:26;4.50;;;1.83;;
48845;SDS011;34665;51.886;5.436;2022-08-01T11:07:03;8.10;;;2.10;;
48845;SDS011;34665;51.886;5.436;2022-08-01T11:09:40;6.07;;;1.75;;
48845;SDS011;34665;51.886;5.436;2022-08-01T11:12:09;6.20;;;1.80;;
48845;SDS011;34665;51.886;5.436;2022-08-01T11:17:41;4.68;;;1.45;;
48845;SDS011;34665;51.886;5.436;2022-08-01T11:25:27;10.00;;;2.73;;
48845;SDS011;34665;51.886;5.436;2022-08-01T11:30:42;28.87;;;14.50;;
48845;SDS011;34665;51.886;5.436;2022-08-01T11:33:08;9.67;;;2.77;;
48845;SDS011;34665;51.886;5.436;2022-08-01T11:35:34;8.80;;;3.70;;
48845;SDS011;34665;51.886;5.436;2022-08-01T11:49:24;12.67;;;5.40;;
48845;SDS011;34665;51.886;5.436;2022-08-01T11:55:08;9.37;;;4.50;;
48845;SDS011;34665;51.886;5.436;2022-08-01T11:57:34;7.50;;;3.00;;
48845;SDS011;34665;51.886;5.436;2022-08-01T12:00:10;15.70;;;6.15;;
48845;SDS011;34665;51.886;5.436;2022-08-01T12:02:39;8.73;;;2.40;;
48845;SDS011;34665;51.886;5.436;2022-08-01T12:05:06;11.07;;;2.50;;
48845;SDS011;34665;51.886;5.436;2022-08-01T12:07:35;7.38;;;2.75;;
48845;SDS011;34665;51.886;5.436;2022-08-01T12:12:34;7.10;;;1.60;;
48845;SDS011;34665;51.886;5.436;2022-08-01T12:15:03;6.45;;;2.17;;
48845;SDS011;34665;51.886;5.436;2022-08-01T12:20:03;7.57;;;1.92;;
48845;SDS011;34665;51.886;5.436;2022-08-01T12:22:31;4.75;;;1.95;;
48845;SDS011;34665;51.886;5.436;2022-08-01T12:27:35;7.57;;;2.60;;
48845;SDS011;34665;51.886;5.436;2022-08-01T12:30:04;9.25;;;2.05;;
48845;SDS011;34665;51.886;5.436;2022-08-01T12:32:35;11.43;;;4.57;;
48845;SDS011;34665;51.886;5.436;2022-08-01T12:35:06;8.27;;;3.22;;
48845;SDS011;34665;51.886;5.436;2022-08-01T12:37:37;12.02;;;3.25;;
48845;SDS011;34665;51.886;5.436;2022-08-01T12:42:48;9.10;;;1.85;;
48845;SDS011;34665;51.886;5.436;2022-08-01T12:45:15;9.23;;;2.47;;
48845;SDS011;34665;51.886;5.436;2022-08-01T12:47:43;7.97;;;2.15;;
48845;SDS011;34665;51.886;5.436;2022-08-01T12:50:12;12.77;;;4.40;;
48845;SDS011;34665;51.886;5.436;2022-08-01T12:52:39;16.88;;;8.00;;
48845;SDS011;34665;51.886;5.436;2022-08-01T12:55:06;7.80;;;2.28;;
48845;SDS011;34665;51.886;5.436;2022-08-01T12:57:34;10.80;;;3.85;;
48845;SDS011;34665;51.886;5.436;2022-08-01T13:00:43;10.10;;;4.30;;
48845;SDS011;34665;51.886;5.436;2022-08-01T13:03:02;9.25;;;3.85;;
48845;SDS011;34665;51.886;5.436;2022-08-01T13:08:18;8.30;;;3.40;;
48845;SDS011;34665;51.886;5.436;2022-08-01T13:10:45;12.13;;;3.30;;
48845;SDS011;34665;51.886;5.436;2022-08-01T13:13:11;9.45;;;2.80;;
48845;SDS011;34665;51.886;5.436;2022-08-01T13:15:38;9.93;;;2.00;;
48845;SDS011;34665;51.886;5.436;2022-08-01T13:18:21;5.78;;;1.85;;
48845;SDS011;34665;51.886;5.436;2022-08-01T13:20:50;8.88;;;2.40;;
48845;SDS011;34665;51.886;5.436;2022-08-01T13:23:31;10.48;;;3.33;;
48845;SDS011;34665;51.886;5.436;2022-08-01T13:25:56;7.57;;;1.80;;
48845;SDS011;34665;51.886;5.436;2022-08-01T13:28:26;7.75;;;2.00;;
48845;SDS011;34665;51.886;5.436;2022-08-01T13:30:58;8.48;;;2.28;;
48845;SDS011;34665;51.886;5.436;2022-08-01T13:33:39;11.68;;;2.13;;
48845;SDS011;34665;51.886;5.436;2022-08-01T13:36:07;7.72;;;2.50;;
48845;SDS011;34665;51.886;5.436;2022-08-01T13:38:34;9.77;;;2.38;;
48845;SDS011;34665;51.886;5.436;2022-08-01T13:41:19;7.15;;;2.30;;
48845;SDS011;34665;51.886;5.436;2022-08-01T13:43:45;6.57;;;1.90;;
48845;SDS011;34665;51.886;5.436;2022-08-01T13:46:10;4.38;;;1.70;;
48845;SDS011;34665;51.886;5.436;2022-08-01T13:48:36;6.50;;;1.50;;
48845;SDS011;34665;51.886;5.436;2022-08-01T13:51:01;7.07;;;1.45;;
48845;SDS011;34665;51.886;5.436;2022-08-01T13:53:27;4.25;;;1.20;;
48845;SDS011;34665;51.886;5.436;2022-08-01T13:55:53;5.07;;;1.30;;
48845;SDS011;34665;51.886;5.436;2022-08-01T13:58:18;5.13;;;1.30;;
48845;SDS011;34665;51.886;5.436;2022-08-01T14:00:44;7.53;;;2.92;;
48845;SDS011;34665;51.886;5.436;2022-08-01T14:03:10;6.05;;;2.65;;
48845;SDS011;34665;51.886;5.436;2022-08-01T14:05:36;6.28;;;2.55;;
48845;SDS011;34665;51.886;5.436;2022-08-01T14:08:02;10.05;;;4.05;;
48845;SDS011;34665;51.886;5.436;2022-08-01T14:10:28;6.57;;;3.97;;
48845;SDS011;34665;51.886;5.436;2022-08-01T14:12:54;9.40;;;2.00;;
48845;SDS011;34665;51.886;5.436;2022-08-01T14:15:21;7.32;;;2.47;;
48845;SDS011;34665;51.886;5.436;2022-08-01T14:17:46;6.93;;;1.80;;
48845;SDS011;34665;51.886;5.436;2022-08-01T14:20:12;5.88;;;2.90;;
48845;SDS011;34665;51.886;5.436;2022-08-01T14:22:38;5.40;;;2.55;;
48845;SDS011;34665;51.886;5.436;2022-08-01T14:25:06;5.32;;;1.23;;
48845;SDS011;34665;51.886;5.436;2022-08-01T14:27:32;15.77;;;8.07;;
48845;SDS011;34665;51.886;5.436;2022-08-01T14:30:01;8.40;;;3.30;;
48845;SDS011;34665;51.886;5.436;2022-08-01T14:32:27;5.60;;;1.80;;
48845;SDS011;34665;51.886;5.436;2022-08-01T14:34:53;4.65;;;2.25;;
48845;SDS011;34665;51.886;5.436;2022-08-01T14:37:18;4.40;;;2.15;;
48845;SDS011;34665;51.886;5.436;2022-08-01T14:39:44;4.03;;;1.58;;
48845;SDS011;34665;51.886;5.436;2022-08-01T14:42:09;6.95;;;2.55;;
48845;SDS011;34665;51.886;5.436;2022-08-01T14:44:34;4.78;;;2.45;;
48845;SDS011;34665;51.886;5.436;2022-08-01T14:47:00;5.18;;;1.13;;
48845;SDS011;34665;51.886;5.436;2022-08-01T14:49:25;3.35;;;1.40;;
48845;SDS011;34665;51.886;5.436;2022-08-01T14:51:50;4.55;;;1.17;;
48845;SDS011;34665;51.886;5.436;2022-08-01T14:54:16;5.47;;;2.08;;
48845;SDS011;34665;51.886;5.436;2022-08-01T14:56:42;3.53;;;1.60;;
48845;SDS011;34665;51.886;5.436;2022-08-01T14:59:07;6.00;;;2.95;;
48845;SDS011;34665;51.886;5.436;2022-08-01T15:01:32;4.18;;;1.83;;
48845;SDS011;34665;51.886;5.436;2022-08-01T15:03:58;2.97;;;0.90;;
48845;SDS011;34665;51.886;5.436;2022-08-01T15:06:24;3.63;;;1.42;;
48845;SDS011;34665;51.886;5.436;2022-08-01T15:08:49;5.43;;;1.40;;
48845;SDS011;34665;51.886;5.436;2022-08-01T15:11:14;5.85;;;2.10;;
48845;SDS011;34665;51.886;5.436;2022-08-01T15:13:40;7.50;;;1.83;;
48845;SDS011;34665;51.886;5.436;2022-08-01T15:16:06;8.68;;;3.35;;
48845;SDS011;34665;51.886;5.436;2022-08-01T15:18:31;4.25;;;1.60;;
48845;SDS011;34665;51.886;5.436;2022-08-01T15:20:56;22.92;;;9.30;;
48845;SDS011;34665;51.886;5.436;2022-08-01T15:23:22;8.32;;;2.00;;
48845;SDS011;34665;51.886;5.436;2022-08-01T15:25:48;11.68;;;7.60;;
48845;SDS011;34665;51.886;5.436;2022-08-01T15:28:13;4.30;;;1.48;;
48845;SDS011;34665;51.886;5.436;2022-08-01T15:30:39;3.30;;;0.90;;
48845;SDS011;34665;51.886;5.436;2022-08-01T15:33:06;5.15;;;2.05;;
48845;SDS011;34665;51.886;5.436;2022-08-01T15:35:32;6.10;;;2.05;;
48845;SDS011;34665;51.886;5.436;2022-08-01T15:37:58;6.78;;;1.98;;
48845;SDS011;34665;51.886;5.436;2022-08-01T15:40:24;4.45;;;1.40;;
48845;SDS011;34665;51.886;5.436;2022-08-01T15:42:49;2.30;;;1.15;;
48845;SDS011;34665;51.886;5.436;2022-08-01T15:45:15;3.33;;;1.35;;
48845;SDS011;34665;51.886;5.436;2022-08-01T15:47:43;3.58;;;1.30;;
48845;SDS011;34665;51.886;5.436;2022-08-01T15:50:09;3.20;;;1.77;;
48845;SDS011;34665;51.886;5.436;2022-08-01T15:52:34;4.43;;;2.38;;
48845;SDS011;34665;51.886;5.436;2022-08-01T15:55:00;2.80;;;2.10;;
48845;SDS011;34665;51.886;5.436;2022-08-01T15:57:25;3.85;;;1.38;;
48845;SDS011;34665;51.886;5.436;2022-08-01T15:59:51;3.58;;;1.40;;
48845;SDS011;34665;51.886;5.436;2022-08-01T16:02:16;10.30;;;5.47;;
48845;SDS011;34665;51.886;5.436;2022-08-01T16:04:42;3.63;;;1.80;;
48845;SDS011;34665;51.886;5.436;2022-08-01T16:07:07;5.65;;;1.50;;
48845;SDS011;34665;51.886;5.436;2022-08-01T16:09:33;3.35;;;0.98;;
48845;SDS011;34665;51.886;5.436;2022-08-01T16:11:59;3.15;;;2.22;;
48845;SDS011;34665;51.886;5.436;2022-08-01T16:14:24;2.30;;;0.73;;
48845;SDS011;34665;51.886;5.436;2022-08-01T16:16:50;5.10;;;1.40;;